sensor_id;sensor_type;location;lat;lon;timestamp;pressure;altitude;pressure_sealevel;temperature;humidity
76311;BME280;65120;59.304;18.294;2023-02-23T00:00:24;101849.63;;;0.00;62.01
76311;BME280;65120;59.304;18.294;2023-02-23T00:02:53;101853.13;;;0.02;62.74
76311;BME280;65120;59.304;18.294;2023-02-23T00:05:23;101842.84;;;0.02;61.87
76311;BME280;65120;59.304;18.294;2023-02-23T00:07:51;101842.84;;;0.02;62.78
76311;BME280;65120;59.304;18.294;2023-02-23T00:10:19;101846.38;;;0.04;62.51
76311;BME280;65120;59.304;18.294;2023-02-23T00:12:48;101848.13;;;0.05;62.17
76311;BME280;65120;59.304;18.294;2023-02-23T00:15:15;101837.84;;;0.05;61.96
76311;BME280;65120;59.304;18.294;2023-02-23T00:17:42;101836.22;;;0.07;62.23
76311;BME280;65120;59.304;18.294;2023-02-23T00:20:12;101823.28;;;0.06;61.92
76311;BME280;65120;59.304;18.294;2023-02-23T00:22:41;101818.25;;;0.07;62.68
76311;BME280;65120;59.304;18.294;2023-02-23T00:25:09;101819.97;;;0.08;62.12
76311;BME280;65120;59.304;18.294;2023-02-23T00:27:37;101810.44;;;0.06;62.75
76311;BME280;65120;59.304;18.294;2023-02-23T00:30:13;101816.63;;;0.09;62.18
76311;BME280;65120;59.304;18.294;2023-02-23T00:32:41;101813.22;;;0.10;62.65
76311;BME280;65120;59.304;18.294;2023-02-23T00:35:09;101811.53;;;0.11;62.55
76311;BME280;65120;59.304;18.294;2023-02-23T00:37:42;101810.66;;;0.10;63.01
76311;BME280;65120;59.304;18.294;2023-02-23T00:40:11;101797.88;;;0.12;62.45
76311;BME280;65120;59.304;18.294;2023-02-23T00:42:41;101803.06;;;0.13;62.90
76311;BME280;65120;59.304;18.294;2023-02-23T00:45:09;101792.00;;;0.14;62.63
76311;BME280;65120;59.304;18.294;2023-02-23T00:47:39;101799.69;;;0.14;62.80
76311;BME280;65120;59.304;18.294;2023-02-23T00:50:08;101792.91;;;0.16;62.83
76311;BME280;65120;59.304;18.294;2023-02-23T00:52:37;101788.63;;;0.17;62.31
76311;BME280;65120;59.304;18.294;2023-02-23T00:55:06;101793.84;;;0.18;63.35
76311;BME280;65120;59.304;18.294;2023-02-23T00:57:33;101779.31;;;0.19;62.79
76311;BME280;65120;59.304;18.294;2023-02-23T01:00:00;101781.97;;;0.20;62.55
76311;BME280;65120;59.304;18.294;2023-02-23T01:02:31;101776.75;;;0.19;62.58
76311;BME280;65120;59.304;18.294;2023-02-23T01:05:00;101784.53;;;0.20;62.73
76311;BME280;65120;59.304;18.294;2023-02-23T01:07:27;101767.41;;;0.21;62.22
76311;BME280;65120;59.304;18.294;2023-02-23T01:09:54;101764.00;;;0.22;62.85
76311;BME280;65120;59.304;18.294;2023-02-23T01:12:20;101762.31;;;0.22;62.36
76311;BME280;65120;59.304;18.294;2023-02-23T01:14:47;101762.41;;;0.24;62.78
76311;BME280;65120;59.304;18.294;2023-02-23T01:17:14;101758.13;;;0.25;62.91
76311;BME280;65120;59.304;18.294;2023-02-23T01:19:42;101754.72;;;0.26;62.78
76311;BME280;65120;59.304;18.294;2023-02-23T01:22:10;101752.16;;;0.26;63.13
76311;BME280;65120;59.304;18.294;2023-02-23T01:24:37;101750.53;;;0.28;62.83
76311;BME280;65120;59.304;18.294;2023-02-23T01:27:04;101742.81;;;0.28;63.35
76311;BME280;65120;59.304;18.294;2023-02-23T01:29:31;101742.03;;;0.29;62.85
76311;BME280;65120;59.304;18.294;2023-02-23T01:31:58;101738.63;;;0.30;62.61
76311;BME280;65120;59.304;18.294;2023-02-23T01:34:25;101734.34;;;0.30;63.32
76311;BME280;65120;59.304;18.294;2023-02-23T01:36:52;101735.22;;;0.31;62.92
76311;BME280;65120;59.304;18.294;2023-02-23T01:39:21;101732.66;;;0.31;62.97
76311;BME280;65120;59.304;18.294;2023-02-23T01:41:48;101728.47;;;0.33;63.10
76311;BME280;65120;59.304;18.294;2023-02-23T01:47:23;101723.31;;;0.33;63.17
76311;BME280;65120;59.304;18.294;2023-02-23T01:49:51;101715.63;;;0.33;62.64
76311;BME280;65120;59.304;18.294;2023-02-23T01:52:18;101709.53;;;0.31;62.81
76311;BME280;65120;59.304;18.294;2023-02-23T01:54:49;101709.72;;;0.35;62.95
76311;BME280;65120;59.304;18.294;2023-02-23T01:57:19;101712.28;;;0.35;62.89
76311;BME280;65120;59.304;18.294;2023-02-23T01:59:50;101699.44;;;0.35;62.95
76311;BME280;65120;59.304;18.294;2023-02-23T02:02:18;101702.13;;;0.38;63.64
76311;BME280;65120;59.304;18.294;2023-02-23T02:04:46;101703.06;;;0.40;64.19
76311;BME280;65120;59.304;18.294;2023-02-23T02:07:21;101694.34;;;0.37;63.64
76311;BME280;65120;59.304;18.294;2023-02-23T02:09:53;101697.94;;;0.40;64.08
76311;BME280;65120;59.304;18.294;2023-02-23T02:12:34;101702.19;;;0.40;63.78
76311;BME280;65120;59.304;18.294;2023-02-23T02:15:03;101690.22;;;0.40;63.47
76311;BME280;65120;59.304;18.294;2023-02-23T02:17:37;101690.25;;;0.42;63.53
76311;BME280;65120;59.304;18.294;2023-02-23T02:20:46;101682.53;;;0.42;64.23
76311;BME280;65120;59.304;18.294;2023-02-23T02:26:33;101674.84;;;0.42;64.29
76311;BME280;65120;59.304;18.294;2023-02-23T02:32:27;101652.63;;;0.44;64.10
76311;BME280;65120;59.304;18.294;2023-02-23T02:38:33;101650.06;;;0.44;65.19
76311;BME280;65120;59.304;18.294;2023-02-23T02:41:10;101642.34;;;0.44;65.34
76311;BME280;65120;59.304;18.294;2023-02-23T02:43:47;101641.53;;;0.45;65.20
76311;BME280;65120;59.304;18.294;2023-02-23T02:46:17;101633.72;;;0.42;64.96
76311;BME280;65120;59.304;18.294;2023-02-23T02:48:49;101635.59;;;0.46;65.34
76311;BME280;65120;59.304;18.294;2023-02-23T02:51:25;101636.47;;;0.47;65.49
76311;BME280;65120;59.304;18.294;2023-02-23T02:53:58;101632.19;;;0.47;65.77
76311;BME280;65120;59.304;18.294;2023-02-23T02:56:32;101625.31;;;0.46;65.70
76311;BME280;65120;59.304;18.294;2023-02-23T02:59:04;101621.91;;;0.47;65.78
76311;BME280;65120;59.304;18.294;2023-02-23T03:01:46;101622.78;;;0.48;65.79
76311;BME280;65120;59.304;18.294;2023-02-23T03:04:31;101620.28;;;0.49;65.89
76311;BME280;65120;59.304;18.294;2023-02-23T03:07:20;101616.88;;;0.50;66.44
76311;BME280;65120;59.304;18.294;2023-02-23T03:10:13;101614.31;;;0.50;65.62
76311;BME280;65120;59.304;18.294;2023-02-23T03:13:09;101615.25;;;0.52;66.19
76311;BME280;65120;59.304;18.294;2023-02-23T03:16:03;101599.81;;;0.52;66.21
76311;BME280;65120;59.304;18.294;2023-02-23T03:19:08;101607.53;;;0.52;65.94
76311;BME280;65120;59.304;18.294;2023-02-23T03:21:59;101601.56;;;0.53;66.39
76311;BME280;65120;59.304;18.294;2023-02-23T03:24:49;101589.47;;;0.51;66.28
76311;BME280;65120;59.304;18.294;2023-02-23T03:27:45;101585.25;;;0.53;66.49
76311;BME280;65120;59.304;18.294;2023-02-23T03:30:38;101579.94;;;0.48;66.47
76311;BME280;65120;59.304;18.294;2023-02-23T03:33:31;101581.00;;;0.53;66.76
76311;BME280;65120;59.304;18.294;2023-02-23T03:36:23;101571.47;;;0.51;66.16
76311;BME280;65120;59.304;18.294;2023-02-23T03:39:15;101572.47;;;0.54;66.21
76311;BME280;65120;59.304;18.294;2023-02-23T03:42:05;101565.56;;;0.53;67.05
76311;BME280;65120;59.304;18.294;2023-02-23T03:44:53;101562.19;;;0.54;67.31
76311;BME280;65120;59.304;18.294;2023-02-23T03:47:40;101563.94;;;0.55;66.16
76311;BME280;65120;59.304;18.294;2023-02-23T03:50:29;101556.16;;;0.54;66.89
76311;BME280;65120;59.304;18.294;2023-02-23T03:53:18;101556.22;;;0.55;67.31
76311;BME280;65120;59.304;18.294;2023-02-23T03:56:07;101551.06;;;0.55;67.78
76311;BME280;65120;59.304;18.294;2023-02-23T03:58:57;101549.38;;;0.56;66.96
76311;BME280;65120;59.304;18.294;2023-02-23T04:01:45;101543.38;;;0.55;66.95
76311;BME280;65120;59.304;18.294;2023-02-23T04:04:32;101543.38;;;0.55;67.27
76311;BME280;65120;59.304;18.294;2023-02-23T04:07:17;101540.78;;;0.55;66.61
76311;BME280;65120;59.304;18.294;2023-02-23T04:10:02;101539.97;;;0.56;66.53
76311;BME280;65120;59.304;18.294;2023-02-23T04:12:49;101538.22;;;0.55;67.03
76311;BME280;65120;59.304;18.294;2023-02-23T04:15:36;101534.78;;;0.55;67.04
76311;BME280;65120;59.304;18.294;2023-02-23T04:18:05;101531.34;;;0.54;67.61
76311;BME280;65120;59.304;18.294;2023-02-23T04:20:32;101524.50;;;0.55;67.04
76311;BME280;65120;59.304;18.294;2023-02-23T04:22:59;101528.81;;;0.56;67.64
76311;BME280;65120;59.304;18.294;2023-02-23T04:25:27;101525.41;;;0.57;67.62
76311;BME280;65120;59.304;18.294;2023-02-23T04:27:55;101519.47;;;0.58;68.13
76311;BME280;65120;59.304;18.294;2023-02-23T04:30:22;101518.63;;;0.59;67.94
76311;BME280;65120;59.304;18.294;2023-02-23T04:32:50;101515.19;;;0.58;67.92
76311;BME280;65120;59.304;18.294;2023-02-23T04:35:18;101515.25;;;0.60;67.45
76311;BME280;65120;59.304;18.294;2023-02-23T04:37:45;101510.13;;;0.60;68.26
76311;BME280;65120;59.304;18.294;2023-02-23T04:40:12;101505.88;;;0.62;67.72
76311;BME280;65120;59.304;18.294;2023-02-23T04:42:40;101506.75;;;0.62;67.80
76311;BME280;65120;59.304;18.294;2023-02-23T04:45:08;101509.31;;;0.62;68.14
76311;BME280;65120;59.304;18.294;2023-02-23T04:47:35;101495.66;;;0.63;67.83
76311;BME280;65120;59.304;18.294;2023-02-23T04:50:03;101502.53;;;0.64;68.39
76311;BME280;65120;59.304;18.294;2023-02-23T04:52:31;101499.97;;;0.64;68.00
76311;BME280;65120;59.304;18.294;2023-02-23T04:54:59;101501.72;;;0.65;67.94
76311;BME280;65120;59.304;18.294;2023-02-23T04:57:26;101483.72;;;0.65;68.14
76311;BME280;65120;59.304;18.294;2023-02-23T04:59:53;101475.94;;;0.64;68.68
76311;BME280;65120;59.304;18.294;2023-02-23T05:02:20;101478.59;;;0.65;68.22
76311;BME280;65120;59.304;18.294;2023-02-23T05:04:47;101471.78;;;0.67;68.79
76311;BME280;65120;59.304;18.294;2023-02-23T05:07:14;101475.13;;;0.65;69.00
76311;BME280;65120;59.304;18.294;2023-02-23T05:09:42;101478.69;;;0.69;68.04
76311;BME280;65120;59.304;18.294;2023-02-23T05:12:09;101467.56;;;0.70;68.48
76311;BME280;65120;59.304;18.294;2023-02-23T05:14:36;101461.59;;;0.71;68.93
76311;BME280;65120;59.304;18.294;2023-02-23T05:17:03;101464.22;;;0.72;68.21
76311;BME280;65120;59.304;18.294;2023-02-23T05:19:30;101468.53;;;0.73;68.87
76311;BME280;65120;59.304;18.294;2023-02-23T05:21:57;101464.25;;;0.74;69.34
76311;BME280;65120;59.304;18.294;2023-02-23T05:24:24;101461.69;;;0.74;68.60
76311;BME280;65120;59.304;18.294;2023-02-23T05:26:53;101457.44;;;0.74;69.20
76311;BME280;65120;59.304;18.294;2023-02-23T05:29:19;101454.91;;;0.76;68.94
76311;BME280;65120;59.304;18.294;2023-02-23T05:31:46;101448.03;;;0.75;68.29
76311;BME280;65120;59.304;18.294;2023-02-23T05:34:13;101446.34;;;0.77;69.17
76311;BME280;65120;59.304;18.294;2023-02-23T05:36:41;101447.25;;;0.77;68.90
76311;BME280;65120;59.304;18.294;2023-02-23T05:39:08;101442.97;;;0.78;69.33
76311;BME280;65120;59.304;18.294;2023-02-23T05:41:35;101441.28;;;0.78;69.69
76311;BME280;65120;59.304;18.294;2023-02-23T05:44:04;101434.44;;;0.79;69.09
76311;BME280;65120;59.304;18.294;2023-02-23T05:46:31;101433.63;;;0.80;69.13
76311;BME280;65120;59.304;18.294;2023-02-23T05:48:59;101424.13;;;0.79;69.03
76311;BME280;65120;59.304;18.294;2023-02-23T05:51:28;101434.50;;;0.80;69.48
76311;BME280;65120;59.304;18.294;2023-02-23T05:53:56;101420.69;;;0.78;69.08
76311;BME280;65120;59.304;18.294;2023-02-23T05:56:23;101417.34;;;0.81;69.75
76311;BME280;65120;59.304;18.294;2023-02-23T05:58:51;101418.22;;;0.81;69.52
76311;BME280;65120;59.304;18.294;2023-02-23T06:01:21;101408.81;;;0.82;69.24
76311;BME280;65120;59.304;18.294;2023-02-23T06:03:48;101400.28;;;0.83;69.17
76311;BME280;65120;59.304;18.294;2023-02-23T06:06:16;101395.94;;;0.82;69.22
76311;BME280;65120;59.304;18.294;2023-02-23T06:08:44;101391.72;;;0.84;69.79
76311;BME280;65120;59.304;18.294;2023-02-23T06:11:11;101398.59;;;0.85;69.41
76311;BME280;65120;59.304;18.294;2023-02-23T06:13:38;101392.66;;;0.86;69.32
76311;BME280;65120;59.304;18.294;2023-02-23T06:16:06;101379.81;;;0.86;69.35
76311;BME280;65120;59.304;18.294;2023-02-23T06:18:35;101381.53;;;0.87;69.41
76311;BME280;65120;59.304;18.294;2023-02-23T06:21:02;101383.28;;;0.88;69.08
76311;BME280;65120;59.304;18.294;2023-02-23T06:23:30;101377.25;;;0.87;69.60
76311;BME280;65120;59.304;18.294;2023-02-23T06:25:58;101366.06;;;0.85;69.32
76311;BME280;65120;59.304;18.294;2023-02-23T06:28:25;101367.84;;;0.88;69.48
76311;BME280;65120;59.304;18.294;2023-02-23T06:30:52;101360.94;;;0.85;69.70
76311;BME280;65120;59.304;18.294;2023-02-23T06:33:20;101354.19;;;0.89;70.08
76311;BME280;65120;59.304;18.294;2023-02-23T06:35:49;101358.38;;;0.87;69.54
76311;BME280;65120;59.304;18.294;2023-02-23T06:38:16;101350.69;;;0.87;70.17
76311;BME280;65120;59.304;18.294;2023-02-23T06:40:43;101347.25;;;0.88;70.33
76311;BME280;65120;59.304;18.294;2023-02-23T06:43:10;101340.38;;;0.87;69.62
76311;BME280;65120;59.304;18.294;2023-02-23T06:45:37;101342.03;;;0.85;69.61
76311;BME280;65120;59.304;18.294;2023-02-23T06:48:04;101343.81;;;0.87;69.85
76311;BME280;65120;59.304;18.294;2023-02-23T06:50:31;101347.31;;;0.89;70.30
76311;BME280;65120;59.304;18.294;2023-02-23T06:52:59;101338.75;;;0.89;70.01
76311;BME280;65120;59.304;18.294;2023-02-23T06:55:26;101339.59;;;0.89;69.49
76311;BME280;65120;59.304;18.294;2023-02-23T06:57:53;101348.19;;;0.90;69.41
76311;BME280;65120;59.304;18.294;2023-02-23T07:00:21;101339.59;;;0.89;69.88
76311;BME280;65120;59.304;18.294;2023-02-23T07:02:48;101337.06;;;0.91;69.90
76311;BME280;65120;59.304;18.294;2023-02-23T07:05:15;101329.41;;;0.93;69.83
76311;BME280;65120;59.304;18.294;2023-02-23T07:07:45;101321.75;;;0.94;69.83
76311;BME280;65120;59.304;18.294;2023-02-23T07:10:13;101315.78;;;0.95;70.23
76311;BME280;65120;59.304;18.294;2023-02-23T07:12:41;101311.50;;;0.96;69.83
76311;BME280;65120;59.304;18.294;2023-02-23T07:15:09;101318.38;;;0.97;70.14
76311;BME280;65120;59.304;18.294;2023-02-23T07:17:36;101308.06;;;0.95;70.13
76311;BME280;65120;59.304;18.294;2023-02-23T07:20:04;101299.41;;;0.93;69.77
76311;BME280;65120;59.304;18.294;2023-02-23T07:22:31;101298.63;;;0.96;69.56
76311;BME280;65120;59.304;18.294;2023-02-23T07:24:58;101301.25;;;0.97;69.76
76311;BME280;65120;59.304;18.294;2023-02-23T07:27:27;101300.41;;;0.98;69.92
76311;BME280;65120;59.304;18.294;2023-02-23T07:29:54;101300.47;;;1.00;70.02
76311;BME280;65120;59.304;18.294;2023-02-23T07:32:21;101301.34;;;1.00;70.05
76311;BME280;65120;59.304;18.294;2023-02-23T07:34:47;101295.38;;;1.01;70.28
76311;BME280;65120;59.304;18.294;2023-02-23T07:37:14;101294.53;;;1.02;70.09
76311;BME280;65120;59.304;18.294;2023-02-23T07:39:42;101293.66;;;1.02;70.39
76311;BME280;65120;59.304;18.294;2023-02-23T07:42:09;101285.16;;;1.04;70.26
76311;BME280;65120;59.304;18.294;2023-02-23T07:44:38;101281.78;;;1.05;70.13
76311;BME280;65120;59.304;18.294;2023-02-23T07:47:05;101274.06;;;1.05;70.70
76311;BME280;65120;59.304;18.294;2023-02-23T07:49:32;101276.66;;;1.07;70.74
76311;BME280;65120;59.304;18.294;2023-02-23T07:51:59;101282.66;;;1.07;70.60
76311;BME280;65120;59.304;18.294;2023-02-23T07:54:26;101275.00;;;1.09;70.37
76311;BME280;65120;59.304;18.294;2023-02-23T07:56:53;101273.25;;;1.08;70.41
76311;BME280;65120;59.304;18.294;2023-02-23T07:59:20;101269.88;;;1.09;70.55
76311;BME280;65120;59.304;18.294;2023-02-23T08:01:48;101266.44;;;1.10;70.54
76311;BME280;65120;59.304;18.294;2023-02-23T08:04:16;101268.19;;;1.11;69.92
76311;BME280;65120;59.304;18.294;2023-02-23T08:06:43;101258.88;;;1.15;70.92
76311;BME280;65120;59.304;18.294;2023-02-23T08:09:11;101259.75;;;1.17;70.53
76311;BME280;65120;59.304;18.294;2023-02-23T08:11:37;101260.66;;;1.17;71.44
76311;BME280;65120;59.304;18.294;2023-02-23T08:14:04;101254.75;;;1.21;71.09
76311;BME280;65120;59.304;18.294;2023-02-23T08:16:32;101253.09;;;1.23;70.76
76311;BME280;65120;59.304;18.294;2023-02-23T08:19:01;101241.94;;;1.23;70.91
76311;BME280;65120;59.304;18.294;2023-02-23T08:21:28;101241.19;;;1.27;71.38
76311;BME280;65120;59.304;18.294;2023-02-23T08:23:55;101242.09;;;1.29;71.18
76311;BME280;65120;59.304;18.294;2023-02-23T08:26:22;101230.03;;;1.28;71.55
76311;BME280;65120;59.304;18.294;2023-02-23T08:28:50;101240.53;;;1.34;71.46
76311;BME280;65120;59.304;18.294;2023-02-23T08:31:17;101226.81;;;1.35;70.87
76311;BME280;65120;59.304;18.294;2023-02-23T08:33:48;101215.66;;;1.34;71.01
76311;BME280;65120;59.304;18.294;2023-02-23T08:36:17;101220.00;;;1.37;71.48
76311;BME280;65120;59.304;18.294;2023-02-23T08:38:45;101218.31;;;1.39;71.60
76311;BME280;65120;59.304;18.294;2023-02-23T08:41:11;101225.25;;;1.42;71.73
76311;BME280;65120;59.304;18.294;2023-02-23T08:43:39;101217.63;;;1.45;71.43
76311;BME280;65120;59.304;18.294;2023-02-23T08:46:06;101213.38;;;1.47;71.57
76311;BME280;65120;59.304;18.294;2023-02-23T08:48:33;101203.16;;;1.48;71.01
76311;BME280;65120;59.304;18.294;2023-02-23T08:51:00;101205.75;;;1.50;71.51
76311;BME280;65120;59.304;18.294;2023-02-23T08:53:29;101190.34;;;1.51;71.88
76311;BME280;65120;59.304;18.294;2023-02-23T08:55:57;101187.78;;;1.53;71.60
76311;BME280;65120;59.304;18.294;2023-02-23T08:58:25;101195.66;;;1.57;71.66
76311;BME280;65120;59.304;18.294;2023-02-23T09:00:51;101184.50;;;1.58;72.19
76311;BME280;65120;59.304;18.294;2023-02-23T09:03:19;101181.13;;;1.61;71.79
76311;BME280;65120;59.304;18.294;2023-02-23T09:05:46;101180.34;;;1.64;71.11
76311;BME280;65120;59.304;18.294;2023-02-23T09:08:13;101169.97;;;1.61;71.52
76311;BME280;65120;59.304;18.294;2023-02-23T09:10:42;101178.75;;;1.69;71.90
76311;BME280;65120;59.304;18.294;2023-02-23T09:13:09;101176.25;;;1.72;71.85
76311;BME280;65120;59.304;18.294;2023-02-23T09:15:37;101181.41;;;1.72;71.29
76311;BME280;65120;59.304;18.294;2023-02-23T09:18:04;101171.16;;;1.75;71.95
76311;BME280;65120;59.304;18.294;2023-02-23T09:20:32;101168.59;;;1.75;71.22
76311;BME280;65120;59.304;18.294;2023-02-23T09:22:59;101167.00;;;1.80;71.64
76311;BME280;65120;59.304;18.294;2023-02-23T09:25:26;101155.94;;;1.84;72.20
76311;BME280;65120;59.304;18.294;2023-02-23T09:27:55;101159.41;;;1.86;71.71
76311;BME280;65120;59.304;18.294;2023-02-23T09:30:25;101147.44;;;1.88;71.75
76311;BME280;65120;59.304;18.294;2023-02-23T09:32:53;101150.09;;;1.91;71.83
76311;BME280;65120;59.304;18.294;2023-02-23T09:35:22;101143.19;;;1.90;71.60
76311;BME280;65120;59.304;18.294;2023-02-23T09:37:52;101137.28;;;1.94;71.48
76311;BME280;65120;59.304;18.294;2023-02-23T09:40:23;101135.63;;;1.96;71.44
76311;BME280;65120;59.304;18.294;2023-02-23T09:42:59;101132.22;;;1.99;71.98
76311;BME280;65120;59.304;18.294;2023-02-23T09:45:38;101133.97;;;2.01;71.91
76311;BME280;65120;59.304;18.294;2023-02-23T09:48:11;101127.16;;;2.03;71.68
76311;BME280;65120;59.304;18.294;2023-02-23T09:50:41;101124.66;;;2.07;71.32
76311;BME280;65120;59.304;18.294;2023-02-23T09:53:19;101120.41;;;2.09;71.67
76311;BME280;65120;59.304;18.294;2023-02-23T09:55:50;101124.78;;;2.11;71.97
76311;BME280;65120;59.304;18.294;2023-02-23T09:58:22;101124.84;;;2.14;71.71
76311;BME280;65120;59.304;18.294;2023-02-23T10:03:54;101115.44;;;2.16;71.33
76311;BME280;65120;59.304;18.294;2023-02-23T10:06:23;101112.94;;;2.21;71.15
76311;BME280;65120;59.304;18.294;2023-02-23T10:09:01;101107.84;;;2.24;71.01
76311;BME280;65120;59.304;18.294;2023-02-23T10:11:35;101112.19;;;2.25;71.57
76311;BME280;65120;59.304;18.294;2023-02-23T10:14:19;101105.38;;;2.29;71.73
76311;BME280;65120;59.304;18.294;2023-02-23T10:16:57;101099.41;;;2.31;71.28
76311;BME280;65120;59.304;18.294;2023-02-23T10:19:31;101090.72;;;2.28;71.56
76311;BME280;65120;59.304;18.294;2023-02-23T10:22:02;101087.38;;;2.32;71.34
76311;BME280;65120;59.304;18.294;2023-02-23T10:24:33;101089.22;;;2.37;71.56
76311;BME280;65120;59.304;18.294;2023-02-23T10:27:07;101087.56;;;2.39;71.85
76311;BME280;65120;59.304;18.294;2023-02-23T10:29:40;101083.28;;;2.41;71.28
76311;BME280;65120;59.304;18.294;2023-02-23T10:32:15;101084.19;;;2.43;71.99
76311;BME280;65120;59.304;18.294;2023-02-23T10:34:45;101078.16;;;2.43;71.76
76311;BME280;65120;59.304;18.294;2023-02-23T10:37:15;101068.81;;;2.50;71.21
76311;BME280;65120;59.304;18.294;2023-02-23T10:39:42;101068.00;;;2.51;71.00
76311;BME280;65120;59.304;18.294;2023-02-23T10:42:13;101055.97;;;2.53;71.55
76311;BME280;65120;59.304;18.294;2023-02-23T10:44:44;101061.25;;;2.57;71.70
76311;BME280;65120;59.304;18.294;2023-02-23T10:47:14;101053.56;;;2.60;71.36
76311;BME280;65120;59.304;18.294;2023-02-23T10:49:44;101048.44;;;2.62;71.13
76311;BME280;65120;59.304;18.294;2023-02-23T10:52:13;101037.28;;;2.64;71.06
76311;BME280;65120;59.304;18.294;2023-02-23T10:54:45;101033.91;;;2.67;71.34
76311;BME280;65120;59.304;18.294;2023-02-23T10:57:20;101025.34;;;2.69;70.84
76311;BME280;65120;59.304;18.294;2023-02-23T11:00:28;101021.94;;;2.72;71.14
76311;BME280;65120;59.304;18.294;2023-02-23T11:02:59;101018.53;;;2.73;71.14
76311;BME280;65120;59.304;18.294;2023-02-23T11:05:36;101016.84;;;2.75;70.88
76311;BME280;65120;59.304;18.294;2023-02-23T11:08:12;101020.31;;;2.77;70.87
76311;BME280;65120;59.304;18.294;2023-02-23T11:10:57;101012.59;;;2.79;71.05
76311;BME280;65120;59.304;18.294;2023-02-23T11:13:26;101022.16;;;2.83;71.00
76311;BME280;65120;59.304;18.294;2023-02-23T11:16:00;101011.84;;;2.84;71.17
76311;BME280;65120;59.304;18.294;2023-02-23T11:18:29;101005.84;;;2.85;70.70
76311;BME280;65120;59.304;18.294;2023-02-23T11:20:56;100987.84;;;2.88;70.64
76311;BME280;65120;59.304;18.294;2023-02-23T11:23:25;100999.06;;;2.90;70.71
76311;BME280;65120;59.304;18.294;2023-02-23T11:25:56;100991.34;;;2.92;71.25
76311;BME280;65120;59.304;18.294;2023-02-23T11:28:28;100993.09;;;2.95;70.88
76311;BME280;65120;59.304;18.294;2023-02-23T11:30:59;100987.94;;;2.95;70.92
76311;BME280;65120;59.304;18.294;2023-02-23T11:33:30;100981.09;;;2.98;70.76
76311;BME280;65120;59.304;18.294;2023-02-23T11:36:13;100978.56;;;3.00;70.86
76311;BME280;65120;59.304;18.294;2023-02-23T11:38:40;100974.25;;;3.00;70.54
76311;BME280;65120;59.304;18.294;2023-02-23T11:41:18;100969.97;;;3.01;70.72
76311;BME280;65120;59.304;18.294;2023-02-23T11:43:47;100963.13;;;3.04;70.87
76311;BME280;65120;59.304;18.294;2023-02-23T11:46:17;100955.44;;;3.06;70.96
76311;BME280;65120;59.304;18.294;2023-02-23T11:48:49;100958.88;;;3.06;70.62
76311;BME280;65120;59.304;18.294;2023-02-23T11:51:25;100948.59;;;3.08;70.77
76311;BME280;65120;59.304;18.294;2023-02-23T11:53:53;100947.72;;;3.09;70.95
76311;BME280;65120;59.304;18.294;2023-02-23T11:56:23;100944.28;;;3.10;70.75
76311;BME280;65120;59.304;18.294;2023-02-23T11:58:53;100942.59;;;3.10;70.74
76311;BME280;65120;59.304;18.294;2023-02-23T12:01:34;100948.63;;;3.11;70.60
76311;BME280;65120;59.304;18.294;2023-02-23T12:04:04;100938.31;;;3.11;70.87
76311;BME280;65120;59.304;18.294;2023-02-23T12:06:33;100927.94;;;3.08;70.81
76311;BME280;65120;59.304;18.294;2023-02-23T12:09:08;100921.91;;;3.09;70.79
76311;BME280;65120;59.304;18.294;2023-02-23T12:11:45;100923.69;;;3.11;70.41
76311;BME280;65120;59.304;18.294;2023-02-23T12:14:23;100912.50;;;3.12;70.21
76311;BME280;65120;59.304;18.294;2023-02-23T12:16:56;100916.84;;;3.15;70.88
76311;BME280;65120;59.304;18.294;2023-02-23T12:19:28;100911.63;;;3.12;70.55
76311;BME280;65120;59.304;18.294;2023-02-23T12:22:01;100908.25;;;3.16;70.87
76311;BME280;65120;59.304;18.294;2023-02-23T12:24:39;100908.25;;;3.16;70.57
76311;BME280;65120;59.304;18.294;2023-02-23T12:27:11;100906.53;;;3.17;70.33
76311;BME280;65120;59.304;18.294;2023-02-23T12:29:47;100907.41;;;3.17;70.49
76311;BME280;65120;59.304;18.294;2023-02-23T12:32:23;100896.19;;;3.15;70.08
76311;BME280;65120;59.304;18.294;2023-02-23T12:34:55;100897.03;;;3.14;70.67
76311;BME280;65120;59.304;18.294;2023-02-23T12:37:33;100891.84;;;3.12;70.51
76311;BME280;65120;59.304;18.294;2023-02-23T12:40:10;100893.59;;;3.15;70.80
76311;BME280;65120;59.304;18.294;2023-02-23T12:42:45;100886.72;;;3.14;70.67
76311;BME280;65120;59.304;18.294;2023-02-23T12:45:22;100883.28;;;3.13;70.33
76311;BME280;65120;59.304;18.294;2023-02-23T12:48:01;100885.00;;;3.14;70.55
76311;BME280;65120;59.304;18.294;2023-02-23T12:50:31;100873.81;;;3.14;70.55
76311;BME280;65120;59.304;18.294;2023-02-23T12:53:08;100867.72;;;3.09;70.53
76311;BME280;65120;59.304;18.294;2023-02-23T12:55:49;100871.22;;;3.15;70.56
76311;BME280;65120;59.304;18.294;2023-02-23T12:58:23;100868.66;;;3.14;69.96
76311;BME280;65120;59.304;18.294;2023-02-23T13:00:57;100863.44;;;3.12;70.38
76311;BME280;65120;59.304;18.294;2023-02-23T13:03:48;100856.56;;;3.13;70.71
76311;BME280;65120;59.304;18.294;2023-02-23T13:06:25;100839.25;;;3.03;70.08
76311;BME280;65120;59.304;18.294;2023-02-23T13:09:08;100850.53;;;3.11;70.11
76311;BME280;65120;59.304;18.294;2023-02-23T13:11:49;100846.25;;;3.11;70.48
76311;BME280;65120;59.304;18.294;2023-02-23T13:14:24;100847.97;;;3.11;70.45
76311;BME280;65120;59.304;18.294;2023-02-23T13:16:59;100841.09;;;3.11;70.35
76311;BME280;65120;59.304;18.294;2023-02-23T13:19:34;100829.84;;;3.08;70.33
76311;BME280;65120;59.304;18.294;2023-02-23T13:22:17;100828.09;;;3.07;70.00
76311;BME280;65120;59.304;18.294;2023-02-23T13:24:48;100832.44;;;3.09;70.30
76311;BME280;65120;59.304;18.294;2023-02-23T13:27:22;100830.72;;;3.08;70.27
76311;BME280;65120;59.304;18.294;2023-02-23T13:29:52;100819.56;;;3.11;70.10